Flag for Italy

Past Weather in Provincia di Barletta - Andria - Trani, Italy — Yesterday and Last 2 Weeks

Currently: 37 °F. Clear. (Weather station: Bari / Palese Macchie, Italy). See more current weather

Past Weather in Provincia di Barletta - Andria - Trani — Graph

°F

Provincia di Barletta - Andria - Trani Temperature Yesterday

Maximum temperature yesterday: 57 °F (at 11:20 am)
Minimum temperature yesterday: 34 °F (at 5:50 am)
Average temperature yesterday: 46 °F

High & Low Weather Summary for the Past Weeks

 TemperatureHumidityPressure
High64 °F (Jan 18, 11:50 am)100% (Jan 20, 10:50 pm)30.30 "Hg (Jan 20, 10:50 pm)
Low34 °F (Jan 24, 5:20 am)25% (Feb 1, 11:20 am)29.33 "Hg (Jan 21, 1:50 am)
Average47 °F76%29.89 "Hg
* Reported Jan 17 10:20 pm — Feb 1 10:20 pm, Provincia di Barletta - Andria - Trani. Weather by CustomWeather, © 2023

Note: Actual official high and low records may vary slightly from our data, if they occured in-between our weather recording intervals... More about our weather records

Provincia di Barletta - Andria - Trani Weather History for the Previous 24 Hours

Scroll right to see more
 ConditionsComfort  
Time TempWeatherWind HumidityBarometerVisibility
10:20 pm
Wed, Feb 1
43 °FClear.6 mph81%30.15 "Hg10 mi
9:50 pm43 °FClear.2 mph81%30.15 "Hg10 mi
9:20 pm43 °FClear.9 mph81%30.15 "Hg10 mi
8:50 pm43 °FClear.9 mph81%30.15 "Hg10 mi
8:20 pm43 °FClear.8 mph81%30.15 "Hg10 mi
7:50 pm43 °FClear.8 mph81%30.15 "Hg10 mi
7:20 pm45 °FClear.9 mph76%30.15 "Hg10 mi
6:50 pm45 °FClear.8 mph76%30.15 "Hg10 mi
6:20 pm43 °FClear.5 mph76%30.15 "Hg10 mi
5:50 pm46 °FClear.6 mph66%30.15 "Hg10 mi
5:20 pm52 °FClear.5 mph50%30.15 "Hg10 mi
4:50 pm52 °FSunny.2 mph47%30.15 "Hg10 mi
4:20 pm54 °FPassing clouds.6 mph41%30.15 "HgN/A
3:50 pm54 °FSunny.9 mph44%30.15 "Hg10 mi
3:20 pm55 °FSunny.9 mph44%30.15 "Hg10 mi
2:50 pm55 °FSunny.8 mph33%30.15 "Hg10 mi
2:20 pm55 °FSunny.8 mph33%30.15 "Hg10 mi
1:50 pm55 °FPassing clouds.7 mph33%30.15 "HgN/A
1:20 pm55 °FPassing clouds.7 mph33%30.15 "HgN/A
12:50 pm55 °FSunny.7 mph31%30.18 "Hg10 mi
12:20 pm57 °FPassing clouds.5 mph29%30.18 "HgN/A
11:50 am57 °FPassing clouds.5 mph29%30.18 "HgN/A
11:20 am57 °FSunny.3 mph25%30.21 "Hg10 mi
10:50 am55 °FSunny.2 mph28%30.21 "Hg10 mi
10:20 am55 °FSunny.2 mph33%30.21 "Hg10 mi
9:50 am52 °FSunny.5 mph47%30.21 "Hg10 mi
9:20 am50 °FSunny.7 mph54%30.21 "Hg10 mi
8:50 am45 °FSunny.7 mph66%30.21 "Hg10 mi
8:20 am41 °FSunny.8 mph70%30.21 "Hg10 mi
7:50 am37 °FSunny.9 mph75%30.21 "Hg10 mi
7:20 am36 °FSunny.8 mph81%30.18 "Hg10 mi
6:50 am36 °FClear.8 mph81%30.18 "Hg10 mi
6:20 am36 °FPassing clouds.8 mph81%30.18 "HgN/A
5:50 am34 °FPassing clouds.7 mph87%30.18 "HgN/A
5:20 am37 °FPassing clouds.7 mph75%30.21 "HgN/A
4:50 am39 °FPassing clouds.7 mph70%30.21 "HgN/A
4:20 am41 °FPassing clouds.9 mph70%30.21 "HgN/A
3:50 am41 °FPassing clouds.7 mph70%30.21 "HgN/A
3:20 am39 °FPassing clouds.7 mph75%30.21 "HgN/A
2:50 am41 °FPassing clouds.7 mph70%30.21 "HgN/A
2:20 am36 °FPassing clouds.6 mph87%30.21 "HgN/A
1:50 am41 °FPassing clouds.6 mph70%30.21 "HgN/A
12:20 am41 °FPassing clouds.7 mph70%30.21 "HgN/A
Weather by CustomWeather, © 2023

See weather overview